CheckWX is a tool to help pilots better visualize weather data.  It is not intended as a substitute for an official pre-flight weather briefing.

09:12:48 UTC

EGPE METAR
Inverness Airport
Inverness, United Kingdom
Current

23 mins ago

EGPE 140850Z 22004KT 9999 FEW022CB SCT035 00/M01 Q1009
Observed
Nov-14 @ 08:50 UTC
Wind
  • 220° at 4 KTS
Visibility
10,000+ meters
Flight Rules
VFR
Cloud Levels
  • Few at 2,200' AGL
  • Scattered at 3,500' AGL
Temperature
C / 32°F
Dewpoint
-1°C / 30°F
Humidity
93%
Altimeter
29.79" Hg
Pressure
1008.92 hPa
Previous

53 mins ago

EGPE 140820Z 22004KT 9999 FEW022CB SCT035 M00/M01 Q1009
Observed
Nov-14 @ 08:20 UTC
Wind
  • 220° at 4 KTS
Visibility
10,000+ meters
Flight Rules
VFR
Cloud Levels
  • Few at 2,200' AGL
  • Scattered at 3,500' AGL
Temperature
C / 32°F
Dewpoint
-1°C / 30°F
Humidity
93%
Altimeter
29.79" Hg
Pressure
1008.92 hPa
Previous

1 hour ago

EGPE 140750Z 22004KT 9999 FEW022 M01/M02 Q1008
Observed
Nov-14 @ 07:50 UTC
Wind
  • 220° at 4 KTS
Visibility
10,000+ meters
Flight Rules
VFR
Cloud Levels
  • Few at 2,200' AGL
Temperature
-1°C / 30°F
Dewpoint
-2°C / 28°F
Humidity
93%
Altimeter
29.76" Hg
Pressure
1007.92 hPa